Time;durP1;ratioP1;P1;durP2;ratioP2;P2;SDS_P1;SDS_P2;PMS_P1;PMS_P2;Temp;Humidity;BMP_temperature;BMP_pressure;BME280_temperature;BME280_humidity;BME280_pressure;Samples;Min_cycle;Max_cycle;Signal;HPM_P1;HPM_P2
2023/01/14 00:02:24;;;;;;;7.50;1.00;;;5.60;99.90;;;;;;5012262;28;20413;-71
2023/01/14 00:04:50;;;;;;;10.60;1.73;;;5.60;99.90;;;;;;5021907;28;20080;-72
2023/01/14 00:07:16;;;;;;;4.82;0.88;;;5.60;99.90;;;;;;5014341;28;20398;-72
2023/01/14 00:09:42;;;;;;;7.20;1.20;;;5.60;99.90;;;;;;5032251;28;20018;-72
2023/01/14 00:12:08;;;;;;;6.18;0.90;;;5.60;99.90;;;;;;5033417;28;20026;-72
2023/01/14 00:14:39;;;;;;;10.27;1.27;;;5.60;99.90;;;;;;5024726;28;20044;-72
2023/01/14 00:17:05;;;;;;;4.72;0.77;;;5.60;99.90;;;;;;5012430;28;20029;-71
2023/01/14 00:19:37;;;;;;;4.82;1.00;;;5.60;99.90;;;;;;5047355;28;20040;-72
2023/01/14 00:22:02;;;;;;;8.82;1.70;;;5.60;99.90;;;;;;5033554;28;20040;-72
2023/01/14 00:24:28;;;;;;;3.60;0.80;;;5.60;99.90;;;;;;5008995;28;20483;-72
2023/01/14 00:27:00;;;;;;;8.85;1.08;;;5.60;99.90;;;;;;5014866;28;20443;-72
2023/01/14 00:29:35;;;;;;;5.47;1.58;;;5.60;99.90;;;;;;5010420;28;20696;-72
2023/01/14 00:32:03;;;;;;;5.55;1.20;;;5.60;99.90;;;;;;5025176;22;20069;-73
2023/01/14 00:34:30;;;;;;;4.25;0.95;;;5.60;99.90;;;;;;4997331;28;20029;-73
2023/01/14 00:36:57;;;;;;;10.43;1.40;;;5.60;99.90;;;;;;5004448;28;20034;-73
2023/01/14 00:39:26;;;;;;;6.88;0.90;;;5.60;99.90;;;;;;5005423;28;20045;-72
2023/01/14 00:41:54;;;;;;;8.13;1.48;;;5.60;99.90;;;;;;5001397;28;20026;-73
2023/01/14 00:44:20;;;;;;;7.68;0.90;;;5.60;99.90;;;;;;4999680;28;20037;-73
2023/01/14 00:46:46;;;;;;;8.00;1.00;;;5.60;99.90;;;;;;4996282;28;20029;-73
2023/01/14 00:49:24;;;;;;;7.78;1.00;;;5.60;99.90;;;;;;5004461;28;20053;-73
2023/01/14 00:51:50;;;;;;;4.40;1.17;;;5.60;99.90;;;;;;4998054;28;20633;-73
2023/01/14 00:54:18;;;;;;;4.85;1.20;;;5.60;99.90;;;;;;4999625;28;20045;-73
2023/01/14 00:56:48;;;;;;;8.85;1.10;;;5.60;99.90;;;;;;5003252;28;20467;-72
2023/01/14 00:59:19;;;;;;;4.10;0.82;;;5.60;99.90;;;;;;4998671;28;20398;-72
2023/01/14 01:01:46;;;;;;;4.45;0.80;;;5.70;99.90;;;;;;5003816;28;20037;-72
2023/01/14 01:04:12;;;;;;;9.18;1.00;;;5.70;99.90;;;;;;4982852;28;20069;-73
2023/01/14 01:06:37;;;;;;;9.90;1.05;;;5.70;99.90;;;;;;5002184;28;20111;-72
2023/01/14 01:09:06;;;;;;;5.18;1.23;;;5.80;99.90;;;;;;5006126;28;20026;-73
2023/01/14 01:11:32;;;;;;;5.63;1.20;;;5.70;99.90;;;;;;5009767;28;20034;-74
2023/01/14 01:13:58;;;;;;;7.00;1.52;;;5.70;99.90;;;;;;5006814;28;20044;-73
2023/01/14 01:16:24;;;;;;;7.00;0.80;;;5.80;99.90;;;;;;5007977;28;20051;-73
2023/01/14 01:18:56;;;;;;;6.20;1.08;;;5.80;99.90;;;;;;5008549;28;20032;-73
2023/01/14 01:21:28;;;;;;;5.43;1.00;;;5.80;99.90;;;;;;5006160;28;20029;-73
2023/01/14 01:23:57;;;;;;;6.45;0.80;;;5.80;99.90;;;;;;5007137;28;20040;-73
2023/01/14 01:26:32;;;;;;;4.10;0.70;;;5.80;99.90;;;;;;5013935;28;20026;-73
2023/01/14 01:28:58;;;;;;;2.92;1.10;;;5.80;99.90;;;;;;5000888;28;20022;-73
2023/01/14 01:31:25;;;;;;;4.72;0.95;;;5.80;99.90;;;;;;5003140;28;20068;-73
2023/01/14 01:34:00;;;;;;;5.90;1.38;;;5.80;99.90;;;;;;5005981;28;20037;-73
2023/01/14 01:36:27;;;;;;;3.30;0.77;;;5.80;99.90;;;;;;4991297;28;20112;-73
2023/01/14 01:38:53;;;;;;;4.85;0.65;;;5.80;99.90;;;;;;4988230;28;20034;-72
2023/01/14 01:41:25;;;;;;;6.47;1.10;;;5.80;99.90;;;;;;4990408;28;20029;-73
2023/01/14 01:44:17;;;;;;;7.22;0.70;;;5.80;99.90;;;;;;4989772;28;20085;-73
2023/01/14 01:46:43;;;;;;;8.13;0.88;;;5.80;99.90;;;;;;4984614;28;20053;-73
2023/01/14 01:49:17;;;;;;;6.30;0.90;;;5.70;99.90;;;;;;5003378;28;20026;-73
2023/01/14 01:52:24;;;;;;;6.10;1.20;;;5.80;99.90;;;;;;5005706;28;20022;-73
2023/01/14 01:55:03;;;;;;;3.17;0.85;;;5.70;99.90;;;;;;4943398;28;20066;-73
2023/01/14 01:57:30;;;;;;;3.90;0.73;;;5.70;99.90;;;;;;4943921;28;20118;-74
2023/01/14 02:00:07;;;;;;;4.15;0.90;;;5.70;99.90;;;;;;4980806;28;20513;-72
2023/01/14 02:02:33;;;;;;;3.60;0.55;;;5.60;99.90;;;;;;4987559;28;20118;-72
2023/01/14 02:05:02;;;;;;;5.40;0.80;;;5.60;99.90;;;;;;5003453;28;20029;-72
2023/01/14 02:07:28;;;;;;;4.65;1.67;;;5.60;99.90;;;;;;5005305;28;20080;-72
2023/01/14 02:10:03;;;;;;;7.43;0.90;;;5.60;99.90;;;;;;5003865;28;20030;-72
2023/01/14 02:13:11;;;;;;;7.07;1.27;;;5.60;99.90;;;;;;4988505;28;20044;-72
2023/01/14 02:16:13;;;;;;;5.85;0.90;;;5.60;99.90;;;;;;5012912;28;20386;-73
2023/01/14 02:18:47;;;;;;;2.00;0.60;;;5.50;99.90;;;;;;4991688;28;20168;-72
2023/01/14 02:21:29;;;;;;;6.57;1.00;;;5.50;99.90;;;;;;5009831;28;20510;-72
2023/01/14 02:24:16;;;;;;;3.03;1.20;;;5.50;99.90;;;;;;4992736;28;20397;-72
2023/01/14 02:27:05;;;;;;;7.82;1.63;;;5.50;99.90;;;;;;5012966;28;20026;-72
2023/01/14 02:29:58;;;;;;;6.43;0.95;;;5.50;99.90;;;;;;5009263;28;20402;-73
2023/01/14 02:32:57;;;;;;;6.68;0.82;;;5.50;99.90;;;;;;5012729;28;20099;-72
2023/01/14 02:35:23;;;;;;;4.47;0.60;;;5.50;99.90;;;;;;4979108;28;20632;-75
2023/01/14 02:38:07;;;;;;;4.00;1.00;;;5.40;99.90;;;;;;4996804;28;20087;-72
2023/01/14 02:40:42;;;;;;;5.82;0.77;;;5.40;99.90;;;;;;5010902;28;20121;-73
2023/01/14 02:46:20;;;;;;;6.85;1.10;;;5.40;99.90;;;;;;5007551;28;20115;-74
2023/01/14 02:48:47;;;;;;;5.93;1.20;;;5.30;99.90;;;;;;5009836;28;20403;-71
2023/01/14 02:51:16;;;;;;;4.80;0.93;;;5.30;99.90;;;;;;4997906;28;20073;-74
2023/01/14 02:53:47;;;;;;;8.52;1.38;;;5.30;99.90;;;;;;4996305;28;20479;-72
2023/01/14 02:56:16;;;;;;;5.85;1.20;;;5.30;99.90;;;;;;5011525;28;20030;-71
2023/01/14 02:59:11;;;;;;;8.93;1.65;;;5.30;99.90;;;;;;5009246;28;20026;-74
2023/01/14 03:02:01;;;;;;;8.35;1.50;;;5.20;99.90;;;;;;5010278;28;20076;-73
2023/01/14 03:04:29;;;;;;;3.22;0.98;;;5.20;99.90;;;;;;4989573;28;20070;-74
2023/01/14 03:07:13;;;;;;;5.07;1.08;;;5.20;99.90;;;;;;5010270;28;20101;-73
2023/01/14 03:09:41;;;;;;;6.38;0.82;;;5.20;99.90;;;;;;4988595;28;20033;-73
2023/01/14 03:12:39;;;;;;;4.88;0.90;;;5.10;99.90;;;;;;5009355;28;20026;-73
2023/01/14 03:15:12;;;;;;;8.95;1.30;;;5.10;99.90;;;;;;5009234;28;20080;-72
2023/01/14 03:18:15;;;;;;;6.20;0.80;;;5.10;99.90;;;;;;5008722;28;20029;-71
2023/01/14 03:20:45;;;;;;;9.55;1.52;;;5.00;99.90;;;;;;4995242;28;20030;-72
2023/01/14 03:23:16;;;;;;;3.53;0.98;;;5.00;99.90;;;;;;4994576;28;20022;-72
2023/01/14 03:25:47;;;;;;;4.20;0.90;;;5.00;99.90;;;;;;4997336;28;20475;-72
2023/01/14 03:28:33;;;;;;;6.90;1.10;;;5.00;99.90;;;;;;4992963;28;20108;-72
2023/01/14 03:31:06;;;;;;;7.85;1.08;;;5.00;99.90;;;;;;4994129;28;20030;-72
2023/01/14 03:33:43;;;;;;;3.33;0.95;;;4.90;99.90;;;;;;5007177;28;20046;-72
2023/01/14 03:36:12;;;;;;;3.65;0.98;;;4.90;99.90;;;;;;5007996;28;20040;-72
2023/01/14 03:38:46;;;;;;;4.30;0.90;;;4.90;99.90;;;;;;5009268;28;20026;-72
2023/01/14 03:42:17;;;;;;;7.95;1.10;;;4.90;99.90;;;;;;4996700;28;20065;-74
2023/01/14 03:44:06;;;;;;;5.82;1.30;;;4.80;99.90;;;;;;5010653;28;20088;-74
2023/01/14 03:46:38;;;;;;;4.88;0.80;;;4.80;99.90;;;;;;5009536;28;20391;-72
2023/01/14 03:49:04;;;;;;;5.70;0.85;;;4.80;99.90;;;;;;4994480;28;20053;-72
2023/01/14 03:51:43;;;;;;;5.38;1.23;;;4.90;99.90;;;;;;5010082;28;20439;-72
2023/01/14 03:54:21;;;;;;;6.45;1.00;;;4.90;99.90;;;;;;4992997;28;20128;-72
2023/01/14 03:57:15;;;;;;;3.78;0.80;;;4.90;99.90;;;;;;4994306;28;20129;-72
2023/01/14 03:59:56;;;;;;;5.43;1.20;;;4.90;99.90;;;;;;5010869;28;20108;-73
2023/01/14 04:02:24;;;;;;;7.03;0.98;;;5.00;99.90;;;;;;5008845;28;20041;-73
2023/01/14 04:04:51;;;;;;;5.07;1.00;;;5.00;99.90;;;;;;4993561;28;20025;-73
2023/01/14 04:07:17;;;;;;;10.32;1.00;;;5.00;99.90;;;;;;5002814;28;20034;-72
2023/01/14 04:09:42;;;;;;;5.20;1.02;;;5.00;99.90;;;;;;4989208;28;20030;-73
2023/01/14 04:12:08;;;;;;;7.75;1.02;;;5.10;99.90;;;;;;5009171;28;20029;-73
2023/01/14 04:17:21;;;;;;;4.28;0.70;;;5.10;99.90;;;;;;5008049;28;20044;-73
2023/01/14 04:19:53;;;;;;;3.47;0.88;;;5.00;99.90;;;;;;4993793;28;21138;-72
2023/01/14 04:22:22;;;;;;;8.30;1.38;;;5.00;99.90;;;;;;5005879;28;20030;-74
2023/01/14 04:24:47;;;;;;;7.32;1.65;;;5.10;99.90;;;;;;5008164;28;20519;-74
2023/01/14 04:27:13;;;;;;;6.80;1.73;;;5.10;99.90;;;;;;5009994;28;20061;-74
2023/01/14 04:29:38;;;;;;;5.60;1.13;;;5.10;99.90;;;;;;5010801;28;20022;-72
2023/01/14 04:32:04;;;;;;;11.52;1.45;;;5.10;99.90;;;;;;5007633;28;20030;-72
2023/01/14 04:34:30;;;;;;;8.65;1.02;;;5.10;99.90;;;;;;5009421;28;20100;-72
2023/01/14 04:36:55;;;;;;;5.20;1.00;;;5.20;99.90;;;;;;4990699;28;20052;-72
2023/01/14 04:39:24;;;;;;;6.63;1.52;;;5.20;99.90;;;;;;5010312;28;20136;-72
2023/01/14 04:44:39;;;;;;;3.50;0.95;;;5.20;99.90;;;;;;5011201;28;20057;-72
2023/01/14 04:47:05;;;;;;;5.95;1.10;;;5.30;99.90;;;;;;5009313;28;20030;-72
2023/01/14 04:49:30;;;;;;;6.03;0.80;;;5.30;99.90;;;;;;4997523;28;20025;-74
2023/01/14 04:51:59;;;;;;;6.25;1.05;;;5.30;99.90;;;;;;4991924;28;20501;-74
2023/01/14 04:54:30;;;;;;;3.63;0.73;;;5.30;99.90;;;;;;5008450;28;20563;-74
2023/01/14 04:56:59;;;;;;;6.75;1.20;;;5.30;99.90;;;;;;5008170;28;20388;-74
2023/01/14 04:59:24;;;;;;;5.57;1.00;;;5.30;99.90;;;;;;5010472;28;20053;-74
2023/01/14 05:01:50;;;;;;;5.50;0.75;;;5.20;99.90;;;;;;4996507;28;20026;-74
2023/01/14 05:04:16;;;;;;;4.45;0.98;;;5.20;99.90;;;;;;5011272;28;20501;-73
2023/01/14 05:06:47;;;;;;;7.35;1.00;;;5.20;99.90;;;;;;4998652;28;20033;-73
2023/01/14 05:09:16;;;;;;;4.43;0.82;;;5.10;99.90;;;;;;5012060;28;20030;-74
2023/01/14 05:11:41;;;;;;;5.35;1.15;;;5.10;99.90;;;;;;5003429;28;20025;-74
2023/01/14 05:14:10;;;;;;;3.60;0.75;;;5.10;99.90;;;;;;5011410;28;20083;-74
2023/01/14 05:16:39;;;;;;;6.85;0.95;;;5.10;99.90;;;;;;4995980;28;20030;-74
2023/01/14 05:19:04;;;;;;;5.45;0.85;;;5.00;99.90;;;;;;5012145;28;20554;-73
2023/01/14 05:21:33;;;;;;;3.88;0.50;;;5.00;99.90;;;;;;5012261;28;20112;-74
2023/01/14 05:24:01;;;;;;;6.28;0.95;;;5.00;99.90;;;;;;5011843;28;20617;-74
2023/01/14 05:26:30;;;;;;;2.33;1.02;;;5.00;99.90;;;;;;4996266;28;20023;-73
2023/01/14 05:28:55;;;;;;;3.85;0.98;;;4.90;99.90;;;;;;4998184;28;20030;-74
2023/01/14 05:31:21;;;;;;;3.40;0.90;;;4.90;99.90;;;;;;5008978;28;20033;-73
2023/01/14 05:33:46;;;;;;;4.03;1.17;;;4.90;99.90;;;;;;4995143;28;20379;-74
2023/01/14 05:36:12;;;;;;;4.18;0.75;;;4.90;99.90;;;;;;5012729;28;20033;-74
2023/01/14 05:38:38;;;;;;;5.55;1.30;;;4.90;99.90;;;;;;5012233;28;20120;-74
2023/01/14 05:41:03;;;;;;;5.00;1.08;;;4.90;99.90;;;;;;4998764;28;20034;-74
2023/01/14 05:46:17;;;;;;;7.28;2.35;;;5.00;99.90;;;;;;5011882;28;20104;-74
2023/01/14 05:48:49;;;;;;;5.95;1.13;;;4.90;99.90;;;;;;4994110;28;20034;-74
2023/01/14 05:51:15;;;;;;;5.18;1.00;;;5.00;99.90;;;;;;4993126;28;20435;-74
2023/01/14 05:53:43;;;;;;;8.68;1.50;;;5.00;99.90;;;;;;5003304;28;20053;-74
2023/01/14 05:56:09;;;;;;;7.00;1.75;;;5.00;99.90;;;;;;5003775;28;20026;-73
2023/01/14 05:58:36;;;;;;;3.83;1.38;;;5.00;99.90;;;;;;4992831;28;20044;-73
2023/01/14 06:06:48;;;;;;;11.68;2.10;;;5.10;99.90;;;;;;5000928;28;21283;-76
2023/01/14 06:09:16;;;;;;;13.43;1.10;;;5.20;99.90;;;;;;5002429;28;20030;-76
2023/01/14 06:11:45;;;;;;;8.35;1.38;;;5.30;99.90;;;;;;4998518;28;20022;-75
2023/01/14 06:14:11;;;;;;;6.53;1.50;;;5.30;99.90;;;;;;5004225;28;21327;-76
2023/01/14 06:16:40;;;;;;;9.75;1.63;;;5.50;99.90;;;;;;5007195;28;20030;-76
2023/01/14 06:19:11;;;;;;;10.43;1.40;;;5.60;99.90;;;;;;4985886;28;20115;-74
2023/01/14 06:21:38;;;;;;;9.13;1.63;;;5.60;99.90;;;;;;5005484;28;20042;-74
2023/01/14 06:24:04;;;;;;;7.43;1.60;;;5.60;99.90;;;;;;4986573;28;20474;-74
2023/01/14 06:26:32;;;;;;;5.13;1.27;;;5.60;99.90;;;;;;4992206;28;20038;-74
2023/01/14 06:29:06;;;;;;;6.60;2.17;;;5.50;99.90;;;;;;5002543;28;20029;-75
2023/01/14 06:34:12;;;;;;;8.23;1.70;;;5.50;99.90;;;;;;5033980;28;20091;-77
2023/01/14 06:36:37;;;;;;;11.30;2.47;;;5.50;99.90;;;;;;5023715;28;20729;-76
2023/01/14 06:39:04;;;;;;;7.57;1.70;;;5.50;99.90;;;;;;5025090;28;20115;-77
2023/01/14 06:41:36;;;;;;;6.18;2.00;;;5.50;99.90;;;;;;5041586;28;20049;-77
2023/01/14 06:44:08;;;;;;;8.35;1.42;;;5.50;99.90;;;;;;5006009;28;20508;-77
2023/01/14 06:46:34;;;;;;;11.27;2.00;;;5.40;99.90;;;;;;5008320;28;20033;-76
2023/01/14 06:49:06;;;;;;;8.00;1.88;;;5.50;99.90;;;;;;5024614;28;20470;-77
2023/01/14 06:51:32;;;;;;;4.47;1.80;;;5.50;99.90;;;;;;5025557;28;20437;-77
2023/01/14 06:53:58;;;;;;;8.23;1.58;;;5.50;99.90;;;;;;5022209;28;20041;-76
2023/01/14 06:56:29;;;;;;;8.40;1.83;;;5.50;99.90;;;;;;5007537;28;20033;-78
2023/01/14 06:58:58;;;;;;;11.18;2.38;;;5.50;99.90;;;;;;5006886;28;20034;-77
2023/01/14 07:01:23;;;;;;;7.28;1.52;;;5.50;99.90;;;;;;5009586;28;20547;-77
2023/01/14 07:03:49;;;;;;;8.75;1.65;;;5.60;99.90;;;;;;5023554;28;20029;-77
2023/01/14 07:06:15;;;;;;;11.95;2.40;;;5.60;99.90;;;;;;5019698;28;20076;-77
2023/01/14 07:08:40;;;;;;;7.95;1.90;;;5.60;99.90;;;;;;5025956;28;20033;-78
2023/01/14 07:11:12;;;;;;;7.50;2.03;;;5.60;99.90;;;;;;5021116;28;20034;-74
2023/01/14 07:13:38;;;;;;;8.20;2.08;;;5.60;99.90;;;;;;5011137;28;20389;-75
2023/01/14 07:16:04;;;;;;;7.25;1.65;;;5.70;99.90;;;;;;5020693;28;20036;-74
2023/01/14 07:18:29;;;;;;;9.93;2.65;;;5.70;99.90;;;;;;5006502;28;20029;-74
2023/01/14 07:21:01;;;;;;;12.13;2.05;;;5.70;99.90;;;;;;5020749;28;20026;-73
2023/01/14 07:23:27;;;;;;;8.88;3.30;;;5.70;99.90;;;;;;5023475;28;20025;-73
2023/01/14 07:25:55;;;;;;;5.82;1.60;;;5.80;99.90;;;;;;5025373;28;20025;-75
2023/01/14 07:28:23;;;;;;;7.07;1.83;;;5.80;99.90;;;;;;5024364;28;20108;-75
2023/01/14 07:30:48;;;;;;;9.70;2.17;;;5.80;99.90;;;;;;5021971;28;20024;-75
2023/01/14 07:33:14;;;;;;;8.10;2.05;;;5.80;99.90;;;;;;5020902;28;20049;-75
2023/01/14 07:35:40;;;;;;;8.95;2.03;;;5.80;99.90;;;;;;5004307;28;20398;-75
2023/01/14 07:38:05;;;;;;;11.68;1.90;;;5.90;99.90;;;;;;5008183;28;20032;-75
2023/01/14 07:40:31;;;;;;;9.90;1.83;;;5.90;99.90;;;;;;5023409;28;20033;-77
2023/01/14 07:43:00;;;;;;;7.45;1.92;;;6.00;99.90;;;;;;5023771;28;20044;-74
2023/01/14 07:45:27;;;;;;;9.05;2.38;;;6.00;99.90;;;;;;5002369;28;20032;-75
2023/01/14 07:47:53;;;;;;;12.98;2.15;;;6.00;99.90;;;;;;5008620;28;20102;-75
2023/01/14 07:50:20;;;;;;;9.27;2.30;;;6.00;99.90;;;;;;5007755;28;20025;-76
2023/01/14 07:52:57;;;;;;;10.18;1.88;;;6.00;99.90;;;;;;5005301;28;20030;-75
2023/01/14 07:55:24;;;;;;;10.50;1.77;;;6.10;99.90;;;;;;5007908;28;20030;-75
2023/01/14 07:57:49;;;;;;;8.68;2.03;;;6.00;99.90;;;;;;5024964;28;20035;-75
2023/01/14 08:00:16;;;;;;;5.85;2.10;;;6.10;99.90;;;;;;5022565;28;20025;-75
2023/01/14 08:02:41;;;;;;;5.68;1.30;;;6.10;99.90;;;;;;5022872;28;20530;-75
2023/01/14 08:05:07;;;;;;;8.88;1.90;;;6.10;99.90;;;;;;5016746;28;20196;-75
2023/01/14 08:07:36;;;;;;;6.57;1.55;;;6.10;99.90;;;;;;5024840;28;20059;-74
2023/01/14 08:10:11;;;;;;;6.38;1.95;;;6.10;99.90;;;;;;5005003;28;20021;-75
2023/01/14 08:12:37;;;;;;;8.82;1.65;;;6.20;99.90;;;;;;5024595;28;20864;-74
2023/01/14 08:15:05;;;;;;;10.40;2.47;;;6.20;99.90;;;;;;5024952;28;20036;-74
2023/01/14 08:17:31;;;;;;;11.30;2.03;;;6.20;99.90;;;;;;5009725;28;20038;-75
2023/01/14 08:19:56;;;;;;;6.05;1.77;;;6.20;99.90;;;;;;5025739;28;20098;-75
2023/01/14 08:22:22;;;;;;;8.15;1.90;;;6.20;99.90;;;;;;5023660;28;20033;-75
2023/01/14 08:24:48;;;;;;;7.43;1.88;;;6.20;99.90;;;;;;5024433;28;20021;-75
2023/01/14 08:27:14;;;;;;;8.82;2.08;;;6.20;99.90;;;;;;5029561;28;20029;-75
2023/01/14 08:29:43;;;;;;;10.18;2.17;;;6.20;99.90;;;;;;5030794;28;20037;-75
2023/01/14 08:32:09;;;;;;;6.30;1.90;;;6.20;99.90;;;;;;5019273;28;20036;-75
2023/01/14 08:34:35;;;;;;;9.38;2.13;;;6.30;99.90;;;;;;5027950;28;20029;-75
2023/01/14 08:37:00;;;;;;;9.73;2.13;;;6.30;99.90;;;;;;5027256;28;20033;-75
2023/01/14 08:39:29;;;;;;;5.30;1.60;;;6.40;99.90;;;;;;5012585;28;20032;-75
2023/01/14 08:41:58;;;;;;;6.18;1.33;;;6.40;99.90;;;;;;5024706;28;20108;-74
2023/01/14 08:44:33;;;;;;;4.55;1.40;;;6.40;99.90;;;;;;5026668;28;20034;-75
2023/01/14 08:47:01;;;;;;;5.40;1.20;;;6.50;99.90;;;;;;5006074;28;20025;-75
2023/01/14 08:49:28;;;;;;;7.35;1.60;;;6.50;99.90;;;;;;5012704;28;20500;-74
2023/01/14 08:51:55;;;;;;;9.07;1.60;;;6.60;99.90;;;;;;5024040;28;20117;-74
2023/01/14 08:54:21;;;;;;;6.78;1.27;;;6.60;99.90;;;;;;5014269;28;20041;-74
2023/01/14 08:56:47;;;;;;;6.35;1.27;;;6.60;99.90;;;;;;5008954;28;20037;-75
2023/01/14 08:59:12;;;;;;;4.18;1.27;;;6.60;99.90;;;;;;5025315;28;20021;-75
2023/01/14 09:01:41;;;;;;;5.65;1.38;;;6.60;99.90;;;;;;5011674;28;20104;-75
2023/01/14 09:04:13;;;;;;;5.63;1.27;;;6.70;99.90;;;;;;5025448;28;20383;-75
2023/01/14 09:17:04;;;;;;;4.82;1.50;;;6.70;99.90;;;;;;5011970;28;20045;-75
2023/01/14 09:17:46;;;;;;;;;;;6.80;99.90;;;;;;5028741;28;20041;-75
2023/01/14 09:20:16;;;;;;;7.88;1.83;;;6.90;99.90;;;;;;5026595;28;19913;-76
2023/01/14 09:22:41;;;;;;;6.57;2.08;;;6.90;99.90;;;;;;5024612;28;20548;-75
2023/01/14 09:25:08;;;;;;;6.55;2.05;;;7.00;99.90;;;;;;5034151;28;20030;-75
2023/01/14 09:27:39;;;;;;;6.90;1.33;;;7.00;99.90;;;;;;5030925;28;20060;-74
2023/01/14 09:30:09;;;;;;;4.25;1.58;;;7.00;99.90;;;;;;5023161;28;20030;-74
2023/01/14 09:32:59;;;;;;;4.57;1.00;;;7.00;99.90;;;;;;5029743;28;20042;-74
2023/01/14 09:35:28;;;;;;;4.55;1.48;;;7.10;99.90;;;;;;5023899;28;20101;-75
2023/01/14 09:37:54;;;;;;;7.13;1.42;;;7.10;99.90;;;;;;5028423;28;20018;-75
2023/01/14 09:40:23;;;;;;;4.32;1.42;;;7.10;99.90;;;;;;5029765;28;20029;-75
2023/01/14 09:42:50;;;;;;;5.32;1.23;;;7.10;99.90;;;;;;5028642;28;20423;-75
2023/01/14 09:45:34;;;;;;;3.00;1.02;;;7.20;99.90;;;;;;5025368;28;20022;-75
2023/01/14 09:48:14;;;;;;;4.88;1.48;;;7.20;99.90;;;;;;5028613;28;20029;-76
2023/01/14 09:51:14;;;;;;;5.88;1.40;;;7.30;99.90;;;;;;5010096;28;20026;-75
2023/01/14 09:54:07;;;;;;;3.10;1.30;;;7.30;99.90;;;;;;5015074;28;20026;-75
2023/01/14 09:56:55;;;;;;;3.63;1.10;;;7.40;99.90;;;;;;5024858;28;20467;-75
2023/01/14 09:59:42;;;;;;;3.83;1.27;;;7.50;99.90;;;;;;5012327;28;20040;-75
2023/01/14 10:02:11;;;;;;;4.32;1.10;;;7.50;99.90;;;;;;5030909;28;20367;-75
2023/01/14 10:05:10;;;;;;;2.80;0.82;;;7.60;99.90;;;;;;5006784;28;20021;-75
2023/01/14 10:07:42;;;;;;;8.15;2.08;;;7.60;99.90;;;;;;5001969;28;20022;-74
2023/01/14 10:10:24;;;;;;;4.82;1.02;;;7.70;99.90;;;;;;5010693;28;20033;-74
2023/01/14 10:12:52;;;;;;;5.85;1.20;;;7.80;99.90;;;;;;5010280;28;20069;-74
2023/01/14 10:15:17;;;;;;;5.10;1.20;;;7.80;99.90;;;;;;5024171;28;20405;-75
2023/01/14 10:17:51;;;;;;;4.85;1.23;;;7.90;99.90;;;;;;5029867;28;20157;-74
2023/01/14 10:20:26;;;;;;;3.17;1.42;;;8.00;99.90;;;;;;5032198;28;20563;-74
2023/01/14 10:23:24;;;;;;;4.80;1.40;;;8.00;99.90;;;;;;5026651;28;20056;-76
2023/01/14 10:25:54;;;;;;;4.93;1.20;;;8.00;99.90;;;;;;5010854;28;20036;-76
2023/01/14 10:28:40;;;;;;;3.17;1.00;;;8.10;99.90;;;;;;5028801;28;20075;-75
2023/01/14 10:31:28;;;;;;;3.47;1.02;;;8.10;99.90;;;;;;5027856;28;21179;-76
2023/01/14 10:33:58;;;;;;;4.32;1.10;;;8.10;99.90;;;;;;5023498;28;20113;-76
2023/01/14 10:36:29;;;;;;;9.65;1.55;;;8.10;99.90;;;;;;5024460;28;20073;-76
2023/01/14 10:39:00;;;;;;;6.45;1.75;;;8.10;99.90;;;;;;5026863;28;20108;-75
2023/01/14 10:44:30;;;;;;;5.28;1.05;;;8.10;99.90;;;;;;5027928;28;20145;-77
2023/01/14 10:46:59;;;;;;;3.97;1.70;;;8.10;99.90;;;;;;5026485;28;20033;-75
2023/01/14 10:49:37;;;;;;;4.22;1.52;;;8.10;99.90;;;;;;5011078;28;20116;-75
2023/01/14 10:52:25;;;;;;;4.88;1.30;;;8.10;99.90;;;;;;5028252;28;20013;-76
2023/01/14 10:55:13;;;;;;;5.68;1.83;;;8.10;99.90;;;;;;5029166;28;20068;-75
2023/01/14 10:57:58;;;;;;;5.57;1.40;;;8.20;99.90;;;;;;5033029;28;20022;-75
2023/01/14 11:00:30;;;;;;;4.18;1.02;;;8.20;99.90;;;;;;5028359;28;20076;-75
2023/01/14 11:03:05;;;;;;;11.35;1.80;;;8.20;99.90;;;;;;5021869;28;20057;-75
2023/01/14 11:05:37;;;;;;;4.85;1.73;;;8.20;99.90;;;;;;5033708;28;20025;-75
2023/01/14 11:08:34;;;;;;;7.38;2.20;;;8.20;99.90;;;;;;5031356;28;20049;-76
2023/01/14 11:11:13;;;;;;;2.42;1.20;;;8.20;99.90;;;;;;5031447;28;20018;-76
2023/01/14 11:13:48;;;;;;;7.15;1.90;;;8.30;99.90;;;;;;5033583;28;20482;-75
2023/01/14 11:16:25;;;;;;;9.70;2.13;;;8.30;99.90;;;;;;5033897;28;20091;-76
2023/01/14 11:19:02;;;;;;;7.88;1.83;;;8.20;99.90;;;;;;5033139;28;20037;-75
2023/01/14 11:21:40;;;;;;;4.38;1.63;;;8.30;99.90;;;;;;5030153;28;20029;-76
2023/01/14 11:24:21;;;;;;;9.05;1.65;;;8.30;99.90;;;;;;5012855;28;20029;-76
2023/01/14 11:26:59;;;;;;;7.00;1.70;;;8.30;99.90;;;;;;5022581;28;20017;-75
2023/01/14 11:29:27;;;;;;;5.10;1.77;;;8.30;99.90;;;;;;5026367;28;20025;-76
2023/01/14 11:32:05;;;;;;;5.25;1.67;;;8.30;99.90;;;;;;5029429;28;20465;-76
2023/01/14 11:34:55;;;;;;;6.65;1.58;;;8.30;99.90;;;;;;5013048;28;20030;-76
2023/01/14 11:37:24;;;;;;;4.43;1.38;;;8.40;99.90;;;;;;5008196;28;20036;-76
2023/01/14 11:40:01;;;;;;;6.43;2.08;;;8.40;99.90;;;;;;5005907;28;20083;-77
2023/01/14 11:42:26;;;;;;;5.20;1.38;;;8.40;99.90;;;;;;5006161;28;20109;-76
2023/01/14 11:45:18;;;;;;;9.98;1.60;;;8.40;99.90;;;;;;5031183;28;20239;-76
2023/01/14 11:47:56;;;;;;;9.52;2.00;;;8.40;99.90;;;;;;4976341;28;20131;-78
2023/01/14 11:50:23;;;;;;;9.55;2.10;;;8.40;99.90;;;;;;5027690;28;20025;-77
2023/01/14 11:53:03;;;;;;;5.72;1.40;;;8.40;99.90;;;;;;5013783;28;20021;-75
2023/01/14 11:55:38;;;;;;;5.53;1.65;;;8.40;99.90;;;;;;5012647;28;20387;-78
2023/01/14 11:58:27;;;;;;;6.53;2.03;;;8.40;99.90;;;;;;5015127;28;20029;-76
2023/01/14 12:01:32;;;;;;;9.23;2.05;;;8.40;99.90;;;;;;5021071;28;20061;-77
2023/01/14 12:04:00;;;;;;;7.88;1.77;;;8.40;99.90;;;;;;5035727;28;20049;-78
2023/01/14 12:06:44;;;;;;;6.13;2.15;;;8.40;99.90;;;;;;5019109;28;20052;-77
2023/01/14 12:09:16;;;;;;;;;;;8.40;99.90;;;;;;5021087;28;20022;-77
2023/01/14 12:12:08;;;;;;;5.82;1.77;;;8.40;99.90;;;;;;5019936;28;19917;-77
2023/01/14 12:17:27;;;;;;;11.68;2.17;;;8.40;99.90;;;;;;5033719;28;20037;-77
2023/01/14 12:20:07;;;;;;;9.75;2.50;;;8.30;99.90;;;;;;5017448;28;20401;-76
2023/01/14 12:22:56;;;;;;;9.57;2.42;;;8.30;99.90;;;;;;5016286;28;20483;-77
2023/01/14 12:25:34;;;;;;;7.03;1.92;;;8.30;99.90;;;;;;5011443;28;20025;-76
2023/01/14 12:28:03;;;;;;;9.05;2.22;;;8.30;99.90;;;;;;5006354;28;20022;-76
2023/01/14 12:31:11;;;;;;;6.70;1.85;;;8.30;99.90;;;;;;5028101;28;20045;-75
2023/01/14 12:33:44;;;;;;;6.82;2.17;;;8.30;99.90;;;;;;5033940;22;20044;-76
2023/01/14 12:36:21;;;;;;;4.80;1.98;;;8.30;99.90;;;;;;4986271;28;20034;-77
2023/01/14 12:47:54;;;;;;;7.45;1.70;;;8.30;99.90;;;;;;5004932;28;20032;-77
2023/01/14 12:50:21;;;;;;;8.05;2.13;;;8.30;99.90;;;;;;5003049;28;20041;-77
2023/01/14 12:52:49;;;;;;;10.35;1.75;;;8.30;99.90;;;;;;5003483;28;20024;-77
2023/01/14 12:55:38;;;;;;;5.55;1.73;;;8.30;99.90;;;;;;5003368;28;20087;-77
2023/01/14 12:58:06;;;;;;;6.88;1.70;;;8.30;99.90;;;;;;5003849;28;20042;-79
2023/01/14 13:00:34;;;;;;;6.40;1.85;;;8.20;99.90;;;;;;4987052;28;21798;-77
2023/01/14 13:03:05;;;;;;;8.23;2.28;;;8.30;99.90;;;;;;4999520;28;20091;-77
2023/01/14 13:05:42;;;;;;;7.55;1.88;;;8.30;99.90;;;;;;5000960;28;20022;-77
2023/01/14 13:08:20;;;;;;;4.15;1.80;;;8.30;99.90;;;;;;4996251;28;20018;-78
2023/01/14 13:10:55;;;;;;;6.75;1.55;;;8.30;99.90;;;;;;5005452;28;20037;-77
2023/01/14 13:13:23;;;;;;;7.28;1.63;;;8.30;99.90;;;;;;4998952;28;20030;-77
2023/01/14 13:15:50;;;;;;;6.32;1.90;;;8.30;99.90;;;;;;5004302;28;20053;-77
2023/01/14 13:18:33;;;;;;;5.85;2.25;;;8.30;99.90;;;;;;4999380;28;20041;-77
2023/01/14 13:21:09;;;;;;;8.27;1.95;;;8.30;99.90;;;;;;4955784;28;20092;-77
2023/01/14 13:23:43;;;;;;;8.68;1.63;;;8.30;99.90;;;;;;5020939;28;20053;-77
2023/01/14 13:26:39;;;;;;;5.20;1.77;;;8.40;99.90;;;;;;5008093;28;20034;-77
2023/01/14 13:29:22;;;;;;;8.23;2.35;;;8.40;99.90;;;;;;5006179;28;20053;-77
2023/01/14 13:31:48;;;;;;;5.35;1.67;;;8.40;99.90;;;;;;5003548;28;20029;-77
2023/01/14 13:34:28;;;;;;;3.55;1.52;;;8.40;99.90;;;;;;5006089;28;20036;-77
2023/01/14 13:36:59;;;;;;;3.50;1.33;;;8.50;99.90;;;;;;5006525;28;20034;-78
2023/01/14 13:39:25;;;;;;;6.20;1.70;;;8.50;99.90;;;;;;5009593;28;20050;-78
2023/01/14 13:41:54;;;;;;;5.05;1.63;;;8.50;99.90;;;;;;5002268;28;20037;-78
2023/01/14 13:44:35;;;;;;;7.10;1.70;;;8.60;99.90;;;;;;5003403;28;20045;-78
2023/01/14 13:47:17;;;;;;;6.10;1.55;;;8.60;99.90;;;;;;5006153;28;20033;-78
2023/01/14 13:49:52;;;;;;;5.35;1.77;;;8.60;99.90;;;;;;5006885;28;20053;-77
2023/01/14 13:52:22;;;;;;;5.80;1.63;;;8.60;99.90;;;;;;5005871;28;20025;-78
2023/01/14 13:55:06;;;;;;;6.63;1.48;;;8.60;99.90;;;;;;4999509;28;20058;-78
2023/01/14 13:57:49;;;;;;;3.83;1.42;;;8.70;99.90;;;;;;5007836;28;20026;-77
2023/01/14 14:00:20;;;;;;;6.10;1.57;;;8.70;99.90;;;;;;5006012;28;20030;-77
2023/01/14 14:02:53;;;;;;;4.20;1.27;;;8.60;99.90;;;;;;5009155;28;20096;-77
2023/01/14 14:05:33;;;;;;;4.28;1.50;;;8.70;99.90;;;;;;5007359;28;20100;-77
2023/01/14 14:08:05;;;;;;;8.10;1.70;;;8.70;99.90;;;;;;4999570;28;20045;-78
2023/01/14 14:10:44;;;;;;;3.50;1.40;;;8.70;99.90;;;;;;5007068;28;20064;-78